createdAt,value
2016-10-28T00:00:04.056Z,60.47
2016-10-28T00:00:36.427Z,60.66
2016-10-28T00:01:09.742Z,61.05
2016-10-28T00:01:42.087Z,61.05
2016-10-28T00:02:14.407Z,60.75
2016-10-28T00:02:46.754Z,60.66
2016-10-28T00:03:19.097Z,60.95
2016-10-28T00:03:51.409Z,61.14
2016-10-28T00:04:23.750Z,60.66
2016-10-28T00:04:56.116Z,60.75
2016-10-28T00:05:28.428Z,60.38
2016-10-28T00:06:00.743Z,60.66
2016-10-28T00:06:33.088Z,60.57
2016-10-28T00:07:05.419Z,60.66
2016-10-28T00:07:37.741Z,60.66
2016-10-28T00:08:10.043Z,60.66
2016-10-28T00:08:42.349Z,61.05
2016-10-28T00:09:14.701Z,60.57
2016-10-28T00:09:47.022Z,60.66
2016-10-28T00:10:19.342Z,61.02
2016-10-28T00:10:51.654Z,61.05
2016-10-28T00:11:23.966Z,61.05
2016-10-28T00:11:56.296Z,60.66
2016-10-28T00:12:28.621Z,60.66
2016-10-28T00:13:00.947Z,60.75
2016-10-28T00:13:33.270Z,61.05
2016-10-28T00:14:05.599Z,61.05
2016-10-28T00:14:37.922Z,60.95
2016-10-28T00:15:10.221Z,61.14
2016-10-28T00:15:42.539Z,61.14
2016-10-28T00:16:14.873Z,60.75
2016-10-28T00:16:47.189Z,60.95
2016-10-28T00:17:19.505Z,61.05
2016-10-28T00:17:51.813Z,60.85
2016-10-28T00:18:24.163Z,60.85
2016-10-28T00:18:56.474Z,60.95
2016-10-28T00:19:28.813Z,60.85
2016-10-28T00:20:01.108Z,61.05
2016-10-28T00:20:33.440Z,61.05
2016-10-28T00:21:05.764Z,61.05
2016-10-28T00:21:38.086Z,61.05
2016-10-28T00:22:10.398Z,60.95
2016-10-28T00:22:42.713Z,60.85
2016-10-28T00:23:15.038Z,60.85
2016-10-28T00:23:47.374Z,61.05
2016-10-28T00:24:19.705Z,60.66
2016-10-28T00:24:52.046Z,60.95
2016-10-28T00:25:24.360Z,60.95
2016-10-28T00:25:56.687Z,60.95
2016-10-28T00:26:29.006Z,60.95
2016-10-28T00:27:01.328Z,60.95
2016-10-28T00:27:33.641Z,60.95
2016-10-28T00:28:05.971Z,60.85
2016-10-28T00:28:38.332Z,60.95
2016-10-28T00:29:10.666Z,60.66
2016-10-28T00:29:43.001Z,61.05
2016-10-28T00:30:15.360Z,60.95
2016-10-28T00:30:47.683Z,61.05
2016-10-28T00:31:19.993Z,60.95
2016-10-28T00:31:52.334Z,61.05
2016-10-28T00:32:24.656Z,60.66
2016-10-28T00:32:56.992Z,60.66
2016-10-28T00:33:29.347Z,60.85
2016-10-28T00:34:01.678Z,60.66
2016-10-28T00:34:34.015Z,60.85
2016-10-28T00:35:06.351Z,61.14
2016-10-28T00:35:38.674Z,61.14
2016-10-28T00:36:11.003Z,60.75
2016-10-28T00:36:43.329Z,61.05
2016-10-28T00:37:15.669Z,61.14
2016-10-28T00:37:47.996Z,61.24
2016-10-28T00:38:20.334Z,60.85
2016-10-28T00:38:52.711Z,60.82
2016-10-28T00:39:25.033Z,61.05
2016-10-28T00:39:57.343Z,60.75
2016-10-28T00:40:29.644Z,60.63
2016-10-28T00:41:01.956Z,60.66
2016-10-28T00:41:34.266Z,61.24
2016-10-28T00:42:06.598Z,61.11
2016-10-28T00:42:38.987Z,60.75
2016-10-28T00:43:11.316Z,60.75
2016-10-28T00:43:43.660Z,61.05
2016-10-28T00:44:15.990Z,60.72
2016-10-28T00:44:48.353Z,61.02
2016-10-28T00:45:20.693Z,61.05
2016-10-28T00:45:53.009Z,61.14
2016-10-28T00:46:25.338Z,60.75
2016-10-28T00:46:57.682Z,60.63
2016-10-28T00:47:30.013Z,60.72
2016-10-28T00:48:02.351Z,60.72
2016-10-28T00:48:34.691Z,60.82
2016-10-28T00:49:07.057Z,60.72
2016-10-28T00:49:39.380Z,60.75
2016-10-28T00:50:11.706Z,60.75
2016-10-28T00:50:44.020Z,60.82
2016-10-28T00:51:16.388Z,60.72
2016-10-28T00:51:48.716Z,61.05
2016-10-28T00:52:21.046Z,61.11
2016-10-28T00:52:53.419Z,60.82
2016-10-28T00:53:25.745Z,60.85
2016-10-28T00:53:58.064Z,60.66
2016-10-28T00:54:30.391Z,60.66
2016-10-28T00:55:02.715Z,60.72
2016-10-28T00:55:35.047Z,60.85
2016-10-28T00:56:07.376Z,60.66
2016-10-28T00:56:39.687Z,61.14
2016-10-28T00:57:12.001Z,61.21
2016-10-28T00:57:44.317Z,61.11
2016-10-28T00:58:16.629Z,61.02
2016-10-28T00:58:48.950Z,60.63
2016-10-28T00:59:21.304Z,61.11
2016-10-28T00:59:53.629Z,60.63
2016-10-28T01:00:25.957Z,61.11
2016-10-28T01:00:58.277Z,61.3
2016-10-28T01:01:30.596Z,61.05
2016-10-28T01:02:02.944Z,60.63
2016-10-28T01:02:35.298Z,61.3
2016-10-28T01:03:07.610Z,61.02
2016-10-28T01:03:39.941Z,61.21
2016-10-28T01:04:12.267Z,60.72
2016-10-28T01:04:44.598Z,61.11
2016-10-28T01:05:16.932Z,61.02
2016-10-28T01:05:49.251Z,61.14
2016-10-28T01:06:21.564Z,61.59
2016-10-28T01:06:53.873Z,60.95
2016-10-28T01:07:26.188Z,61.59
2016-10-28T01:07:58.505Z,60.92
2016-10-28T01:08:30.821Z,61.4
2016-10-28T01:09:03.122Z,61.11
2016-10-28T01:09:35.466Z,61.02
2016-10-28T01:10:07.783Z,61.69
2016-10-28T01:10:40.095Z,61.21
2016-10-28T01:11:12.412Z,61.59
2016-10-28T01:11:44.732Z,61.49
2016-10-28T01:12:17.057Z,60.92
2016-10-28T01:12:50.248Z,60.92
2016-10-28T01:13:22.600Z,61.11
2016-10-28T01:13:54.956Z,61.21
2016-10-28T01:14:27.342Z,61.59
2016-10-28T01:14:59.677Z,61.3
2016-10-28T01:15:32.020Z,61.4
2016-10-28T01:16:04.333Z,61.3
2016-10-28T01:16:36.659Z,61.49
2016-10-28T01:17:08.996Z,60.92
2016-10-28T01:17:41.358Z,61.4
2016-10-28T01:18:13.744Z,61.4
2016-10-28T01:18:46.080Z,61.4
2016-10-28T01:19:18.410Z,61.3
2016-10-28T01:19:51.234Z,61.3
2016-10-28T01:20:23.569Z,61.49
2016-10-28T01:20:55.890Z,61.49
2016-10-28T01:21:28.214Z,61.3
2016-10-28T01:22:00.528Z,61.3
2016-10-28T01:22:32.858Z,61.02
2016-10-28T01:23:05.193Z,61.3
2016-10-28T01:23:37.550Z,61.3
2016-10-28T01:24:09.872Z,61.4
2016-10-28T01:24:42.179Z,61.49
2016-10-28T01:25:14.508Z,61.3
2016-10-28T01:25:46.872Z,61.3
2016-10-28T01:26:19.177Z,61.49
2016-10-28T01:26:51.515Z,61.4
2016-10-28T01:27:23.825Z,61.49
2016-10-28T01:27:56.158Z,61.3
2016-10-28T01:28:28.469Z,61.3
2016-10-28T01:29:00.804Z,61.62
2016-10-28T01:29:33.145Z,61.49
2016-10-28T01:30:05.467Z,61.3
2016-10-28T01:30:37.785Z,61.59
2016-10-28T01:31:10.111Z,61.02
2016-10-28T01:31:42.416Z,61.21
2016-10-28T01:32:14.725Z,61.02
2016-10-28T01:32:47.042Z,61.3
2016-10-28T01:33:19.367Z,61.59
2016-10-28T01:33:51.725Z,61.21
2016-10-28T01:34:24.063Z,61.3
2016-10-28T01:34:56.385Z,61.11
2016-10-28T01:35:28.704Z,61.59
2016-10-28T01:36:01.021Z,61.3
2016-10-28T01:36:33.387Z,61.21
2016-10-28T01:37:05.725Z,61.11
2016-10-28T01:37:38.064Z,61.3
2016-10-28T01:38:10.375Z,61.69
2016-10-28T01:38:42.745Z,61.11
2016-10-28T01:39:15.070Z,61.11
2016-10-28T01:39:47.403Z,61.02
2016-10-28T01:40:19.730Z,60.92
2016-10-28T01:40:52.056Z,60.92
2016-10-28T01:41:24.418Z,60.95
2016-10-28T01:41:56.732Z,60.92
2016-10-28T01:42:29.050Z,61.49
2016-10-28T01:43:01.403Z,61.62
2016-10-28T01:43:33.735Z,61.49
2016-10-28T01:44:06.088Z,61.3
2016-10-28T01:44:38.410Z,61.02
2016-10-28T01:45:10.738Z,61.02
2016-10-28T01:45:43.103Z,61.11
2016-10-28T01:46:15.443Z,61.11
2016-10-28T01:46:47.763Z,61.02
2016-10-28T01:47:20.081Z,61.4
2016-10-28T01:47:52.399Z,61.11
2016-10-28T01:48:24.726Z,61.4
2016-10-28T01:48:57.066Z,61.49
2016-10-28T01:49:29.394Z,61.02
2016-10-28T01:50:01.699Z,61.11
2016-10-28T01:50:34.012Z,61.02
2016-10-28T01:51:06.333Z,61.49
2016-10-28T01:51:38.654Z,61.4
2016-10-28T01:52:10.973Z,61.02
2016-10-28T01:52:43.307Z,61.49
2016-10-28T01:53:15.621Z,61.02
2016-10-28T01:53:47.948Z,60.92
2016-10-28T01:54:20.279Z,61.4
2016-10-28T01:54:52.592Z,61.3
2016-10-28T01:55:24.904Z,61.02
2016-10-28T01:55:57.228Z,61.02
2016-10-28T01:56:29.546Z,61.11
2016-10-28T01:57:01.869Z,61.4
2016-10-28T01:57:34.184Z,61.21
2016-10-28T01:58:06.520Z,61.14
2016-10-28T01:58:38.837Z,61.3
2016-10-28T01:59:11.151Z,61.4
2016-10-28T01:59:43.487Z,61.02
2016-10-28T02:00:15.818Z,61.02
2016-10-28T02:00:48.163Z,61.3
2016-10-28T02:01:20.484Z,61.11
2016-10-28T02:01:52.826Z,61.02
2016-10-28T02:02:25.155Z,61.11
2016-10-28T02:02:57.474Z,61.3
2016-10-28T02:03:29.795Z,61.4
2016-10-28T02:04:02.112Z,61.02
2016-10-28T02:04:34.426Z,61.11
2016-10-28T02:05:06.745Z,61.4
2016-10-28T02:05:39.059Z,61.11
2016-10-28T02:06:11.381Z,61.02
2016-10-28T02:06:43.708Z,61.02
2016-10-28T02:07:16.027Z,61.02
2016-10-28T02:07:48.352Z,61.11
2016-10-28T02:08:20.666Z,61.02
2016-10-28T02:08:52.994Z,61.4
2016-10-28T02:09:25.320Z,61.4
2016-10-28T02:09:57.635Z,61.02
2016-10-28T02:10:29.951Z,61.3
2016-10-28T02:11:02.298Z,61.02
2016-10-28T02:11:34.651Z,61.02
2016-10-28T02:12:06.968Z,61.02
2016-10-28T02:12:39.284Z,60.92
2016-10-28T02:13:11.607Z,61.43
2016-10-28T02:13:43.930Z,61.4
2016-10-28T02:14:16.298Z,61.14
2016-10-28T02:14:48.609Z,61.14
2016-10-28T02:15:20.936Z,60.82
2016-10-28T02:15:53.304Z,61.02
2016-10-28T02:16:25.631Z,61.11
2016-10-28T02:16:58.034Z,61.11
2016-10-28T02:17:30.399Z,61.02
2016-10-28T02:18:02.779Z,61.02
2016-10-28T02:18:35.111Z,61.43
2016-10-28T02:19:07.430Z,61.11
2016-10-28T02:19:39.754Z,61.4
2016-10-28T02:20:12.126Z,60.92
2016-10-28T02:20:44.442Z,61.3
2016-10-28T02:21:16.810Z,61.21
2016-10-28T02:21:49.125Z,61.21
2016-10-28T02:22:21.465Z,61.02
2016-10-28T02:22:53.816Z,61.43
2016-10-28T02:23:26.151Z,60.82
2016-10-28T02:23:58.505Z,61.3
2016-10-28T02:24:30.843Z,61.05
2016-10-28T02:25:03.167Z,61.3
2016-10-28T02:25:35.490Z,61.43
2016-10-28T02:26:07.806Z,61.4
2016-10-28T02:26:40.114Z,61.21
2016-10-28T02:27:12.423Z,61.4
2016-10-28T02:27:44.781Z,61.11
2016-10-28T02:28:17.098Z,61.24
2016-10-28T02:28:49.412Z,61.02
2016-10-28T02:29:21.759Z,61.43
2016-10-28T02:29:54.085Z,61.21
2016-10-28T02:30:26.395Z,61.11
2016-10-28T02:30:58.716Z,61.3
2016-10-28T02:31:31.039Z,61.3
2016-10-28T02:32:03.368Z,60.92
2016-10-28T02:32:35.695Z,61.11
2016-10-28T02:33:07.999Z,61.88
2016-10-28T02:33:40.317Z,61.24
2016-10-28T02:34:12.628Z,61.49
2016-10-28T02:34:44.937Z,61.24
2016-10-28T02:35:17.263Z,61.21
2016-10-28T02:35:49.570Z,61.11
2016-10-28T02:36:21.923Z,61.43
2016-10-28T02:36:54.254Z,61.81
2016-10-28T02:37:26.581Z,61.11
2016-10-28T02:37:58.898Z,61.4
2016-10-28T02:38:31.215Z,61.52
2016-10-28T02:39:03.538Z,61.24
2016-10-28T02:39:35.932Z,61.3
2016-10-28T02:40:08.261Z,61.21
2016-10-28T02:40:40.601Z,61.24
2016-10-28T02:41:12.919Z,61.91
2016-10-28T02:41:45.233Z,61.49
2016-10-28T02:42:17.544Z,61.49
2016-10-28T02:42:49.864Z,61.21
2016-10-28T02:43:22.189Z,61.33
2016-10-28T02:43:54.491Z,61.49
2016-10-28T02:44:26.807Z,61.49
2016-10-28T02:44:59.132Z,61.59
2016-10-28T02:45:31.465Z,61.52
2016-10-28T02:46:03.781Z,61.72
2016-10-28T02:46:36.144Z,61.52
2016-10-28T02:47:08.468Z,61.81
2016-10-28T02:47:40.832Z,61.21
2016-10-28T02:48:13.168Z,61.72
2016-10-28T02:48:45.479Z,61.43
2016-10-28T02:49:17.795Z,61.4
2016-10-28T02:49:50.106Z,61.69
2016-10-28T02:50:22.449Z,61.72
2016-10-28T02:50:54.774Z,61.3
2016-10-28T02:51:27.093Z,61.43
2016-10-28T02:51:59.406Z,61.24
2016-10-28T02:52:31.746Z,61.33
2016-10-28T02:53:04.079Z,61.33
2016-10-28T02:53:36.396Z,61.21
2016-10-28T02:54:08.734Z,61.4
2016-10-28T02:54:41.044Z,61.43
2016-10-28T02:55:13.350Z,61.4
2016-10-28T02:55:45.682Z,61.52
2016-10-28T02:56:17.994Z,61.43
2016-10-28T02:56:50.312Z,61.43
2016-10-28T02:57:22.630Z,61.14
2016-10-28T02:57:54.948Z,61.3
2016-10-28T02:58:27.533Z,61.49
2016-10-28T02:59:00.690Z,61.43
2016-10-28T02:59:32.995Z,61.52
2016-10-28T03:00:05.312Z,61.4
2016-10-28T03:00:37.628Z,61.24
2016-10-28T03:01:09.940Z,61.4
2016-10-28T03:01:42.262Z,61.11
2016-10-28T03:02:14.583Z,61.43
2016-10-28T03:02:46.916Z,61.49
2016-10-28T03:03:19.286Z,61.43
2016-10-28T03:03:51.615Z,61.52
2016-10-28T03:04:23.913Z,61.3
2016-10-28T03:04:56.239Z,61.62
2016-10-28T03:05:28.570Z,61.24
2016-10-28T03:06:00.884Z,61.24
2016-10-28T03:06:33.206Z,61.24
2016-10-28T03:07:05.533Z,61.49
2016-10-28T03:07:37.863Z,61.24
2016-10-28T03:08:10.208Z,61.24
2016-10-28T03:08:42.554Z,61.33
2016-10-28T03:09:14.900Z,61.33
2016-10-28T03:09:47.222Z,61.24
2016-10-28T03:10:19.546Z,61.11
2016-10-28T03:10:51.877Z,61.24
2016-10-28T03:11:24.189Z,61.21
2016-10-28T03:11:56.501Z,61.24
2016-10-28T03:12:28.819Z,61.05
2016-10-28T03:13:01.143Z,61.14
2016-10-28T03:13:33.470Z,61.14
2016-10-28T03:14:05.775Z,60.95
2016-10-28T03:14:38.089Z,61.14
2016-10-28T03:15:10.427Z,61.14
2016-10-28T03:15:42.734Z,61.62
2016-10-28T03:16:15.051Z,60.95
2016-10-28T03:16:47.370Z,61.14
2016-10-28T03:17:19.677Z,61.14
2016-10-28T03:17:51.990Z,61.52
2016-10-28T03:18:24.333Z,61.24
2016-10-28T03:18:56.671Z,61.14
2016-10-28T03:19:29.014Z,61.14
2016-10-28T03:20:01.333Z,61.62
2016-10-28T03:20:33.692Z,60.95
2016-10-28T03:21:06.025Z,61.14
2016-10-28T03:21:38.354Z,61.14
2016-10-28T03:22:10.684Z,61.14
2016-10-28T03:22:43.011Z,61.14
2016-10-28T03:23:15.333Z,61.72
2016-10-28T03:23:47.656Z,61.14
2016-10-28T03:24:19.974Z,61.14
2016-10-28T03:24:52.300Z,61.14
2016-10-28T03:25:24.626Z,61.14
2016-10-28T03:25:56.986Z,61.24
2016-10-28T03:26:29.329Z,61.24
2016-10-28T03:27:01.670Z,61.52
2016-10-28T03:27:33.991Z,61.52
2016-10-28T03:28:06.328Z,61.24
2016-10-28T03:28:38.645Z,61.52
2016-10-28T03:29:10.982Z,61.62
2016-10-28T03:29:43.288Z,61.24
2016-10-28T03:30:15.607Z,61.43
2016-10-28T03:30:47.935Z,61.43
2016-10-28T03:31:20.238Z,61.11
2016-10-28T03:31:52.598Z,61.33
2016-10-28T03:32:24.934Z,61.43
2016-10-28T03:32:57.309Z,61.62
2016-10-28T03:33:29.629Z,61.52
2016-10-28T03:34:01.959Z,61.14
2016-10-28T03:34:34.266Z,61.43
2016-10-28T03:35:06.594Z,61.52
2016-10-28T03:35:38.923Z,61.24
2016-10-28T03:36:11.238Z,61.14
2016-10-28T03:36:43.591Z,61.24
2016-10-28T03:37:15.931Z,61.52
2016-10-28T03:37:48.266Z,61.52
2016-10-28T03:38:20.585Z,61.24
2016-10-28T03:38:52.908Z,61.14
2016-10-28T03:39:25.225Z,61.52
2016-10-28T03:39:57.573Z,61.4
2016-10-28T03:40:29.895Z,61.24
2016-10-28T03:41:02.238Z,61.14
2016-10-28T03:41:34.578Z,61.52
2016-10-28T03:42:06.901Z,61.24
2016-10-28T03:42:39.225Z,61.14
2016-10-28T03:43:11.563Z,61.24
2016-10-28T03:43:43.879Z,61.14
2016-10-28T03:44:16.200Z,61.14
2016-10-28T03:44:48.530Z,61.24
2016-10-28T03:45:20.837Z,61.14
2016-10-28T03:45:53.183Z,61.33
2016-10-28T03:46:25.504Z,61.24
2016-10-28T03:46:57.846Z,61.33
2016-10-28T03:47:30.166Z,61.33
2016-10-28T03:48:02.480Z,61.52
2016-10-28T03:48:34.803Z,61.24
2016-10-28T03:49:07.134Z,61.24
2016-10-28T03:49:39.448Z,61.33
2016-10-28T03:50:11.761Z,61.52
2016-10-28T03:50:44.118Z,61.33
2016-10-28T03:51:16.477Z,61.33
2016-10-28T03:51:48.816Z,61.52
2016-10-28T03:52:21.134Z,61.33
2016-10-28T03:52:53.439Z,61.33
2016-10-28T03:53:25.762Z,61.24
2016-10-28T03:53:58.079Z,61.62
2016-10-28T03:54:30.449Z,61.52
2016-10-28T03:55:02.780Z,61.33
2016-10-28T03:55:35.094Z,61.33
2016-10-28T03:56:07.402Z,61.33
2016-10-28T03:56:39.728Z,61.24
2016-10-28T03:57:12.069Z,61.33
2016-10-28T03:57:44.397Z,61.52
2016-10-28T03:58:16.764Z,61.43
2016-10-28T03:58:49.153Z,61.52
2016-10-28T03:59:21.470Z,61.33
2016-10-28T03:59:53.791Z,61.43
2016-10-28T04:00:26.128Z,61.62
2016-10-28T04:00:58.451Z,61.52
2016-10-28T04:01:30.793Z,61.43
2016-10-28T04:02:03.151Z,61.62
2016-10-28T04:02:35.517Z,61.43
2016-10-28T04:03:07.840Z,61.33
2016-10-28T04:03:40.164Z,61.43
2016-10-28T04:04:12.495Z,61.33
2016-10-28T04:04:44.807Z,61.24
2016-10-28T04:05:17.117Z,61.33
2016-10-28T04:05:49.470Z,61.33
2016-10-28T04:06:21.794Z,61.33
2016-10-28T04:06:54.122Z,61.43
2016-10-28T04:07:26.452Z,61.43
2016-10-28T04:07:58.772Z,61.43
2016-10-28T04:08:31.108Z,61.91
2016-10-28T04:09:03.428Z,61.43
2016-10-28T04:09:35.751Z,61.43
2016-10-28T04:10:08.064Z,61.43
2016-10-28T04:10:40.374Z,61.43
2016-10-28T04:11:12.735Z,61.43
2016-10-28T04:11:45.077Z,61.62
2016-10-28T04:12:17.396Z,61.43
2016-10-28T04:12:49.724Z,61.43
2016-10-28T04:13:22.095Z,61.33
2016-10-28T04:13:54.427Z,61.43
2016-10-28T04:14:26.753Z,61.72
2016-10-28T04:14:59.091Z,61.43
2016-10-28T04:15:31.410Z,61.43
2016-10-28T04:16:03.749Z,61.33
2016-10-28T04:16:36.085Z,61.43
2016-10-28T04:17:08.381Z,61.33
2016-10-28T04:17:40.697Z,61.43
2016-10-28T04:18:13.010Z,61.4
2016-10-28T04:18:45.327Z,61.62
2016-10-28T04:19:17.649Z,61.43
2016-10-28T04:19:49.962Z,61.72
2016-10-28T04:20:22.302Z,61.81
2016-10-28T04:20:54.634Z,61.43
2016-10-28T04:21:26.957Z,61.91
2016-10-28T04:21:59.267Z,61.33
2016-10-28T04:22:31.607Z,61.43
2016-10-28T04:23:03.934Z,61.24
2016-10-28T04:23:36.249Z,61.43
2016-10-28T04:24:08.582Z,62.29
2016-10-28T04:24:40.955Z,61.43
2016-10-28T04:25:13.269Z,61.33
2016-10-28T04:25:45.593Z,61.33
2016-10-28T04:26:17.923Z,61.72
2016-10-28T04:26:50.276Z,61.14
2016-10-28T04:27:22.588Z,61.43
2016-10-28T04:27:54.919Z,61.81
2016-10-28T04:28:27.226Z,62.29
2016-10-28T04:28:59.542Z,61.14
2016-10-28T04:29:31.856Z,61.81
2016-10-28T04:30:04.174Z,61.24
2016-10-28T04:30:36.490Z,61.24
2016-10-28T04:31:08.833Z,61.81
2016-10-28T04:31:41.167Z,61.33
2016-10-28T04:32:13.503Z,61.14
2016-10-28T04:32:45.825Z,62.39
2016-10-28T04:33:18.129Z,61.14
2016-10-28T04:33:50.474Z,61.24
2016-10-28T04:34:22.786Z,61.33
2016-10-28T04:34:55.084Z,61.43
2016-10-28T04:35:27.398Z,61.62
2016-10-28T04:35:59.712Z,62.1
2016-10-28T04:36:32.024Z,61.43
2016-10-28T04:37:04.333Z,61.52
2016-10-28T04:37:36.646Z,61.52
2016-10-28T04:38:08.950Z,62.29
2016-10-28T04:38:41.267Z,61.43
2016-10-28T04:39:13.599Z,61.52
2016-10-28T04:39:45.932Z,62.29
2016-10-28T04:40:18.249Z,61.62
2016-10-28T04:40:50.605Z,61.62
2016-10-28T04:41:22.917Z,61.62
2016-10-28T04:41:55.223Z,61.43
2016-10-28T04:42:27.560Z,61.62
2016-10-28T04:42:59.927Z,62.01
2016-10-28T04:43:32.261Z,62.1
2016-10-28T04:44:04.571Z,61.52
2016-10-28T04:44:36.879Z,62.29
2016-10-28T04:45:09.213Z,61.52
2016-10-28T04:45:41.540Z,61.91
2016-10-28T04:46:13.868Z,62.29
2016-10-28T04:46:46.176Z,61.43
2016-10-28T04:47:18.525Z,61.43
2016-10-28T04:47:50.847Z,62.19
2016-10-28T04:48:23.165Z,62.1
2016-10-28T04:48:55.537Z,61.62
2016-10-28T04:49:27.856Z,62.01
2016-10-28T04:50:00.175Z,62.1
2016-10-28T04:50:32.492Z,62.1
2016-10-28T04:51:04.800Z,62.01
2016-10-28T04:51:37.107Z,61.62
2016-10-28T04:52:09.417Z,61.91
2016-10-28T04:52:41.720Z,61.52
2016-10-28T04:53:14.044Z,61.72
2016-10-28T04:53:46.372Z,62.1
2016-10-28T04:54:18.711Z,62.1
2016-10-28T04:54:51.027Z,61.52
2016-10-28T04:55:23.339Z,61.62
2016-10-28T04:55:55.657Z,61.43
2016-10-28T04:56:27.997Z,61.62
2016-10-28T04:57:00.326Z,62.01
2016-10-28T04:57:32.698Z,61.62
2016-10-28T04:58:05.025Z,62.1
2016-10-28T04:58:37.351Z,61.43
2016-10-28T04:59:09.681Z,62.01
2016-10-28T04:59:41.989Z,62.1
2016-10-28T05:00:14.355Z,61.52
2016-10-28T05:00:46.678Z,61.62
2016-10-28T05:01:18.988Z,61.91
2016-10-28T05:01:51.306Z,62.1
2016-10-28T05:02:23.631Z,62.01
2016-10-28T05:02:55.946Z,62.01
2016-10-28T05:03:28.264Z,62.01
2016-10-28T05:04:00.580Z,61.62
2016-10-28T05:04:32.894Z,62.01
2016-10-28T05:05:05.249Z,61.62
2016-10-28T05:05:37.577Z,62.01
2016-10-28T05:06:09.893Z,62.19
2016-10-28T05:06:42.214Z,62.01
2016-10-28T05:07:14.533Z,62.01
2016-10-28T05:07:46.838Z,62.01
2016-10-28T05:08:19.160Z,62.01
2016-10-28T05:08:51.480Z,62.19
2016-10-28T05:09:23.840Z,62.01
2016-10-28T05:09:56.173Z,62.01
2016-10-28T05:10:28.493Z,62.01
2016-10-28T05:11:00.835Z,62.1
2016-10-28T05:11:33.164Z,62.01
2016-10-28T05:12:05.515Z,62.01
2016-10-28T05:12:37.841Z,62.1
2016-10-28T05:13:10.159Z,62.01
2016-10-28T05:13:42.491Z,62.1
2016-10-28T05:14:14.807Z,61.81
2016-10-28T05:14:47.117Z,61.81
2016-10-28T05:15:19.448Z,61.91
2016-10-28T05:15:51.775Z,61.91
2016-10-28T05:16:24.084Z,61.72
2016-10-28T05:16:56.406Z,61.81
2016-10-28T05:17:28.715Z,61.81
2016-10-28T05:18:01.041Z,61.81
2016-10-28T05:18:33.368Z,61.81
2016-10-28T05:19:05.687Z,62.01
2016-10-28T05:19:38.056Z,62.01
2016-10-28T05:20:10.369Z,61.72
2016-10-28T05:20:42.693Z,61.81
2016-10-28T05:21:15.075Z,62.1
2016-10-28T05:21:47.396Z,61.91
2016-10-28T05:22:19.728Z,62.1
2016-10-28T05:22:52.068Z,61.81
2016-10-28T05:23:24.395Z,61.81
2016-10-28T05:23:56.730Z,62.01
2016-10-28T05:24:29.100Z,61.81
2016-10-28T05:25:01.909Z,61.81
2016-10-28T05:25:35.630Z,62.01
2016-10-28T05:26:08.189Z,61.91
2016-10-28T05:26:40.526Z,62.01
2016-10-28T05:27:12.848Z,62.1
2016-10-28T05:27:45.173Z,61.91
2016-10-28T05:28:17.508Z,62.01
2016-10-28T05:28:49.826Z,62.01
2016-10-28T05:29:22.147Z,62.01
2016-10-28T05:29:54.519Z,62.1
2016-10-28T05:30:26.839Z,62.01
2016-10-28T05:30:59.260Z,62.01
2016-10-28T05:31:31.940Z,61.91
2016-10-28T05:32:04.285Z,61.91
2016-10-28T05:32:36.612Z,62.1
2016-10-28T05:33:08.937Z,62.1
2016-10-28T05:33:41.256Z,62.01
2016-10-28T05:34:13.572Z,61.91
2016-10-28T05:34:45.907Z,62.01
2016-10-28T05:35:18.222Z,62.01
2016-10-28T05:35:50.527Z,62.01
2016-10-28T05:36:23.865Z,61.91
2016-10-28T05:36:56.185Z,61.91
2016-10-28T05:37:28.502Z,62.01
2016-10-28T05:38:00.829Z,61.91
2016-10-28T05:38:33.203Z,62.19
2016-10-28T05:39:05.540Z,62.1
2016-10-28T05:39:37.858Z,62.01
2016-10-28T05:40:10.181Z,62.19
2016-10-28T05:40:43.692Z,62.01
2016-10-28T05:41:16.026Z,61.91
2016-10-28T05:41:48.467Z,61.91
2016-10-28T05:42:21.453Z,62.01
2016-10-28T05:42:55.906Z,61.91
2016-10-28T05:43:29.601Z,61.91
2016-10-28T05:44:02.336Z,61.91
2016-10-28T05:44:36.109Z,61.72
2016-10-28T05:45:09.863Z,61.62
2016-10-28T05:45:43.900Z,62.01
2016-10-28T05:46:18.239Z,61.91
2016-10-28T05:46:51.903Z,61.91
2016-10-28T05:47:25.214Z,61.91
2016-10-28T05:47:59.006Z,61.91
2016-10-28T05:48:32.604Z,62.1
2016-10-28T05:49:05.844Z,61.81
2016-10-28T05:49:38.224Z,61.91
2016-10-28T05:50:10.550Z,61.62
2016-10-28T05:50:42.897Z,61.72
2016-10-28T05:51:15.733Z,61.81
2016-10-28T05:51:48.659Z,61.91
2016-10-28T05:52:21.146Z,61.91
2016-10-28T05:52:53.734Z,62.01
2016-10-28T05:53:26.314Z,61.91
2016-10-28T05:53:58.872Z,61.81
2016-10-28T05:54:32.405Z,61.91
2016-10-28T05:55:05.115Z,61.81
2016-10-28T05:55:37.748Z,61.72
2016-10-28T05:56:10.309Z,61.72
2016-10-28T05:56:43.397Z,61.91
2016-10-28T05:57:15.728Z,61.62
2016-10-28T05:57:48.030Z,61.62
2016-10-28T05:58:20.345Z,61.91
2016-10-28T05:58:52.667Z,61.81
2016-10-28T05:59:24.993Z,61.81
2016-10-28T05:59:57.324Z,61.81
2016-10-28T06:00:30.369Z,61.72
2016-10-28T06:01:02.993Z,61.81
2016-10-28T06:01:35.439Z,61.81
2016-10-28T06:02:07.820Z,61.81
2016-10-28T06:02:40.275Z,61.72
2016-10-28T06:03:12.601Z,61.81
2016-10-28T06:03:44.925Z,61.91
2016-10-28T06:04:17.265Z,61.72
2016-10-28T06:04:49.602Z,61.72
2016-10-28T06:05:21.927Z,61.62
2016-10-28T06:05:54.277Z,62.01
2016-10-28T06:06:26.687Z,61.72
2016-10-28T06:06:59.023Z,61.62
2016-10-28T06:07:31.357Z,61.91
2016-10-28T06:08:05.495Z,61.62
2016-10-28T06:08:37.817Z,61.72
2016-10-28T06:09:10.903Z,61.62
2016-10-28T06:09:43.248Z,61.72
2016-10-28T06:10:15.581Z,61.62
2016-10-28T06:10:47.905Z,61.81
2016-10-28T06:11:20.231Z,61.72
2016-10-28T06:12:19.003Z,61.72
2016-10-28T06:12:51.436Z,61.72
2016-10-28T06:13:23.749Z,61.91
2016-10-28T06:13:56.081Z,61.72
2016-10-28T06:14:30.514Z,61.91
2016-10-28T06:15:04.437Z,61.81
2016-10-28T06:15:36.775Z,61.72
2016-10-28T06:16:09.084Z,61.81
2016-10-28T06:16:41.496Z,61.91
2016-10-28T06:17:13.819Z,61.91
2016-10-28T06:17:46.230Z,61.91
2016-10-28T06:18:19.587Z,61.81
2016-10-28T06:18:53.112Z,61.52
2016-10-28T06:19:26.650Z,61.72
2016-10-28T06:19:59.079Z,61.52
2016-10-28T06:20:31.425Z,62.01
2016-10-28T06:21:03.753Z,61.91
2016-10-28T06:21:36.140Z,61.91
2016-10-28T06:22:08.553Z,61.62
2016-10-28T06:22:41.905Z,61.91
2016-10-28T06:23:15.661Z,61.72
2016-10-28T06:23:47.999Z,61.91
2016-10-28T06:24:22.072Z,61.72
2016-10-28T06:24:55.568Z,62.01
2016-10-28T06:25:30.433Z,61.43
2016-10-28T06:26:03.512Z,61.62
2016-10-28T06:26:38.399Z,61.72
2016-10-28T06:27:12.923Z,61.72
2016-10-28T06:27:50.418Z,61.72
2016-10-28T06:28:25.430Z,61.72
2016-10-28T06:28:58.806Z,61.62
2016-10-28T06:29:33.109Z,61.62
2016-10-28T06:30:08.651Z,61.52
2016-10-28T06:30:41.420Z,61.72
2016-10-28T06:31:17.387Z,61.72
2016-10-28T06:31:52.418Z,61.72
2016-10-28T06:32:29.713Z,61.81
2016-10-28T06:33:05.420Z,61.81
2016-10-28T06:33:42.917Z,61.72
2016-10-28T06:34:17.917Z,61.72
2016-10-28T06:34:52.911Z,61.72
2016-10-28T06:35:29.919Z,61.81
2016-10-28T06:36:06.744Z,61.91
2016-10-28T06:36:40.440Z,61.81
2016-10-28T06:37:14.669Z,61.81
2016-10-28T06:37:48.441Z,62.01
2016-10-28T06:38:21.693Z,61.72
2016-10-28T06:38:56.615Z,61.81
2016-10-28T06:39:30.964Z,62.19
2016-10-28T06:40:03.852Z,61.91
2016-10-28T06:40:36.576Z,62.19
2016-10-28T06:41:11.455Z,61.62
2016-10-28T06:41:45.214Z,61.81
2016-10-28T06:42:20.920Z,61.72
2016-10-28T06:42:57.754Z,61.72
2016-10-28T06:43:34.417Z,61.62
2016-10-28T06:44:11.919Z,61.62
2016-10-28T06:44:45.929Z,61.91
2016-10-28T06:45:26.562Z,61.62
2016-10-28T06:46:00.442Z,61.62
2016-10-28T06:46:32.851Z,61.52
2016-10-28T06:47:06.942Z,61.52
2016-10-28T06:47:42.174Z,61.62
2016-10-28T06:48:15.777Z,61.72
2016-10-28T06:48:49.269Z,61.62
2016-10-28T06:49:22.062Z,62.19
2016-10-28T06:49:54.555Z,61.43
2016-10-28T06:50:26.952Z,62.01
2016-10-28T06:50:59.910Z,61.72
2016-10-28T06:51:32.284Z,61.72
2016-10-28T06:52:05.286Z,61.72
2016-10-28T06:52:38.892Z,61.72
2016-10-28T06:53:11.194Z,62.19
2016-10-28T06:53:43.600Z,61.62
2016-10-28T06:54:16.099Z,61.62
2016-10-28T06:54:48.418Z,61.72
2016-10-28T06:55:20.774Z,61.43
2016-10-28T06:55:54.349Z,61.91
2016-10-28T06:56:26.685Z,61.81
2016-10-28T06:56:59.001Z,61.72
2016-10-28T06:57:33.917Z,62.19
2016-10-28T06:58:06.236Z,61.72
2016-10-28T06:58:39.936Z,61.81
2016-10-28T06:59:12.368Z,61.43
2016-10-28T06:59:45.917Z,61.72
2016-10-28T07:00:18.357Z,61.81
2016-10-28T07:00:50.693Z,61.72